createdAt,value
2023-02-22T00:02:05.454Z,0.00
2023-02-22T00:14:05.889Z,0.53
2023-02-22T00:26:06.353Z,0.00
2023-02-22T00:38:06.786Z,0.00
2023-02-22T00:50:07.221Z,0.00
2023-02-22T01:02:07.698Z,0.15
2023-02-22T01:14:08.143Z,0.00
2023-02-22T01:26:08.607Z,0.07
2023-02-22T01:38:09.040Z,0.57
2023-02-22T01:50:09.477Z,0.00
2023-02-22T02:02:09.955Z,0.11
2023-02-22T02:14:10.430Z,0.00
2023-02-22T02:26:10.852Z,0.04
2023-02-22T02:38:11.277Z,0.29
2023-02-22T02:50:11.749Z,0.00
2023-02-22T03:02:12.214Z,0.17
2023-02-22T03:14:12.618Z,0.00
2023-02-22T03:26:13.070Z,0.00
2023-02-22T03:38:13.529Z,0.00
2023-02-22T03:50:14.021Z,0.00
2023-02-22T04:02:14.474Z,0.00
2023-02-22T04:14:14.907Z,0.23
2023-02-22T04:26:15.336Z,0.00
2023-02-22T04:38:15.873Z,0.03
2023-02-22T04:50:16.233Z,0.00
2023-02-22T05:02:16.743Z,0.00
2023-02-22T05:14:17.149Z,0.00
2023-02-22T05:26:17.643Z,0.00
2023-02-22T05:38:18.068Z,0.00
2023-02-22T05:50:18.481Z,0.00
2023-02-22T06:02:19.024Z,0.00
2023-02-22T06:14:19.461Z,0.10
2023-02-22T06:26:19.883Z,0.00
2023-02-22T06:38:20.344Z,0.00
2023-02-22T06:50:20.779Z,0.00
2023-02-22T07:02:21.239Z,0.53
2023-02-22T07:14:21.658Z,0.09
2023-02-22T07:26:22.145Z,0.23
2023-02-22T07:38:22.584Z,1.07
2023-02-22T07:50:23.129Z,0.45
2023-02-22T08:02:23.542Z,0.79
2023-02-22T08:14:23.949Z,0.12
2023-02-22T08:26:24.394Z,0.30
2023-02-22T08:38:24.857Z,0.35
2023-02-22T08:50:25.340Z,0.69
2023-02-22T09:02:25.813Z,0.60
2023-02-22T09:14:26.182Z,0.83
2023-02-22T09:26:26.707Z,1.40
2023-02-22T09:38:27.096Z,1.99
2023-02-22T09:50:27.554Z,1.01
2023-02-22T10:02:28.030Z,2.38
2023-02-22T10:14:28.475Z,2.78
2023-02-22T10:26:28.885Z,2.15
2023-02-22T10:38:29.394Z,2.19
2023-02-22T10:50:29.821Z,1.50
2023-02-22T11:02:30.263Z,1.43
2023-02-22T11:14:30.745Z,2.68
2023-02-22T11:26:31.188Z,2.36
2023-02-22T11:38:31.600Z,3.74
2023-02-22T11:50:32.075Z,3.01
2023-02-22T12:02:32.555Z,2.10
2023-02-22T12:14:33.019Z,2.21
2023-02-22T12:26:33.435Z,1.79
2023-02-22T12:38:33.988Z,1.84
2023-02-22T12:50:34.456Z,2.71
2023-02-22T13:02:34.856Z,2.09
2023-02-22T13:14:35.294Z,2.60
2023-02-22T13:26:35.757Z,1.50
2023-02-22T13:38:36.235Z,1.91
2023-02-22T13:50:36.641Z,3.53
2023-02-22T14:02:37.127Z,0.93
2023-02-22T14:14:37.594Z,2.58
2023-02-22T14:26:38.064Z,1.44
2023-02-22T14:38:38.439Z,0.42
2023-02-22T14:50:38.955Z,0.38
2023-02-22T15:02:39.451Z,1.36
2023-02-22T15:14:39.859Z,1.26
2023-02-22T15:26:49.020Z,0.56
2023-02-22T15:38:40.778Z,0.66
2023-02-22T15:50:41.240Z,0.50
2023-02-22T16:02:41.823Z,0.30
2023-02-22T16:14:42.119Z,0.50
2023-02-22T16:26:42.583Z,0.06
2023-02-22T16:38:43.045Z,0.04
2023-02-22T16:50:43.478Z,0.06
2023-02-22T17:02:43.917Z,0.19
2023-02-22T17:14:44.359Z,0.04
2023-02-22T17:26:44.849Z,0.10
2023-02-22T17:38:45.272Z,0.22
2023-02-22T17:50:45.745Z,0.05
2023-02-22T18:02:46.269Z,0.26
2023-02-22T18:14:46.664Z,0.07
2023-02-22T18:26:47.145Z,0.01
2023-02-22T18:38:47.548Z,0.01
2023-02-22T18:50:48.040Z,0.01
2023-02-22T19:02:48.528Z,0.02
2023-02-22T19:14:48.930Z,0.00
2023-02-22T19:26:49.332Z,0.00
2023-02-22T19:38:49.812Z,0.00
2023-02-22T19:50:50.298Z,0.04
2023-02-22T20:02:50.718Z,0.14
2023-02-22T20:14:51.238Z,0.00
2023-02-22T20:26:51.651Z,0.07
2023-02-22T20:38:52.129Z,0.12
2023-02-22T20:50:52.525Z,0.00
2023-02-22T21:02:52.998Z,0.00
2023-02-22T21:14:53.422Z,0.63
2023-02-22T21:26:53.926Z,0.01
2023-02-22T21:38:54.375Z,0.03
2023-02-22T21:50:54.832Z,0.00
2023-02-22T22:02:55.297Z,0.00
2023-02-22T22:14:55.686Z,0.00
2023-02-22T22:26:56.178Z,0.00
2023-02-22T22:38:56.623Z,0.00
2023-02-22T22:50:57.030Z,0.00
2023-02-22T23:02:57.636Z,0.00
2023-02-22T23:14:57.967Z,0.00
2023-02-22T23:26:58.423Z,0.00
2023-02-22T23:38:58.878Z,0.00
2023-02-22T23:50:59.394Z,0.00
